CheckWX is a tool to help pilots better visualize weather data.  It is not intended as a substitute for an official pre-flight weather briefing.

08:49:59 UTC

CYCG METAR
Castlegar/West Kootenay Regional Airport
Castlegar, British Columbia, Canada
Current

5 hours ago

CYCG 150400Z 11004KT 100V200 15SM FEW190 SCT230 20/10 A3000 RMK AC1CI2 LAST STFD OBS/NEXT 151300Z SLP159 DENSITY ALT 2500FT
Observed
Jul-15 @ 04:00 UTC
Wind
  • 110° at 4 KTS
Visibility
15 SM
Flight Rules
VFR
Cloud Levels
  • Few at 19,000' AGL
  • Scattered at 23,000' AGL
Temperature
20°C / 68°F
Dewpoint
10°C / 50°F
Humidity
53%
Altimeter
30" Hg
Pressure
1015.92 hPa
Previous

6 hours ago

CYCG 150300Z 00000KT 15SM BKN220 24/09 A2999 RMK CI6 CONTRAILS SLP153 DENSITY ALT 3000FT
Observed
Jul-15 @ 03:00 UTC
Visibility
15 SM
Flight Rules
VFR
Cloud Levels
  • Broken at 22,000' AGL
Temperature
24°C / 75°F
Dewpoint
C / 48°F
Humidity
39%
Altimeter
29.99" Hg
Pressure
1015.62 hPa
Previous

7 hours ago

CYCG 150200Z 36003KT 310V030 15SM FEW110 BKN230 26/07 A2999 RMK AC1CI7 AC TR CONTRAILS SLP154 DENSITY ALT 3200FT
Observed
Jul-15 @ 02:00 UTC
Wind
  • 360° at 3 KTS
Visibility
15 SM
Flight Rules
VFR
Cloud Levels
  • Few at 11,000' AGL
  • Broken at 23,000' AGL
Temperature
26°C / 79°F
Dewpoint
C / 45°F
Humidity
30%
Altimeter
29.99" Hg
Pressure
1015.62 hPa